sensor_id;sensor_type;location;lat;lon;timestamp;P1;durP1;ratioP1;P2;durP2;ratioP2
47749;SDS011;49810;48.160;10.812;2024-02-15T00:00:52;3.17;;;1.80;;
47749;SDS011;49810;48.160;10.812;2024-02-15T00:01:56;2.60;;;1.67;;
47749;SDS011;49810;48.160;10.812;2024-02-15T00:02:58;2.90;;;1.67;;
47749;SDS011;49810;48.160;10.812;2024-02-15T00:04:16;3.15;;;1.60;;
47749;SDS011;49810;48.160;10.812;2024-02-15T00:05:19;2.05;;;1.55;;
47749;SDS011;49810;48.160;10.812;2024-02-15T00:06:22;3.85;;;1.92;;
47749;SDS011;49810;48.160;10.812;2024-02-15T00:07:24;3.15;;;2.30;;
47749;SDS011;49810;48.160;10.812;2024-02-15T00:08:28;3.55;;;1.98;;
47749;SDS011;49810;48.160;10.812;2024-02-15T00:09:30;4.18;;;1.92;;
47749;SDS011;49810;48.160;10.812;2024-02-15T00:10:33;3.88;;;1.90;;
47749;SDS011;49810;48.160;10.812;2024-02-15T00:11:36;5.03;;;2.10;;
47749;SDS011;49810;48.160;10.812;2024-02-15T00:12:41;3.47;;;1.83;;
47749;SDS011;49810;48.160;10.812;2024-02-15T00:13:42;3.88;;;2.00;;
47749;SDS011;49810;48.160;10.812;2024-02-15T00:14:45;3.42;;;1.67;;
47749;SDS011;49810;48.160;10.812;2024-02-15T00:15:49;3.70;;;1.73;;
47749;SDS011;49810;48.160;10.812;2024-02-15T00:16:52;2.30;;;1.73;;
47749;SDS011;49810;48.160;10.812;2024-02-15T00:17:54;3.15;;;1.80;;
47749;SDS011;49810;48.160;10.812;2024-02-15T00:18:57;3.17;;;2.15;;
47749;SDS011;49810;48.160;10.812;2024-02-15T00:19:59;2.90;;;2.00;;
47749;SDS011;49810;48.160;10.812;2024-02-15T00:21:02;4.18;;;1.85;;
47749;SDS011;49810;48.160;10.812;2024-02-15T00:22:06;3.22;;;1.67;;
47749;SDS011;49810;48.160;10.812;2024-02-15T00:23:08;2.83;;;1.83;;
47749;SDS011;49810;48.160;10.812;2024-02-15T00:24:10;3.13;;;1.90;;
47749;SDS011;49810;48.160;10.812;2024-02-15T00:25:13;2.28;;;1.40;;
47749;SDS011;49810;48.160;10.812;2024-02-15T00:26:16;3.63;;;1.70;;
47749;SDS011;49810;48.160;10.812;2024-02-15T00:27:18;2.90;;;1.70;;
47749;SDS011;49810;48.160;10.812;2024-02-15T00:28:20;4.13;;;1.75;;
47749;SDS011;49810;48.160;10.812;2024-02-15T00:30:26;3.17;;;1.92;;
47749;SDS011;49810;48.160;10.812;2024-02-15T00:31:31;2.22;;;1.52;;
47749;SDS011;49810;48.160;10.812;2024-02-15T00:32:33;2.95;;;1.90;;
47749;SDS011;49810;48.160;10.812;2024-02-15T00:33:35;2.83;;;1.50;;
47749;SDS011;49810;48.160;10.812;2024-02-15T00:34:39;2.55;;;1.55;;
47749;SDS011;49810;48.160;10.812;2024-02-15T00:35:42;4.15;;;1.15;;
47749;SDS011;49810;48.160;10.812;2024-02-15T00:36:45;3.00;;;1.75;;
47749;SDS011;49810;48.160;10.812;2024-02-15T00:37:47;2.65;;;1.45;;
47749;SDS011;49810;48.160;10.812;2024-02-15T00:38:51;2.75;;;1.50;;
47749;SDS011;49810;48.160;10.812;2024-02-15T00:39:54;4.07;;;2.00;;
47749;SDS011;49810;48.160;10.812;2024-02-15T00:40:56;5.22;;;1.70;;
47749;SDS011;49810;48.160;10.812;2024-02-15T00:42:00;2.95;;;1.50;;
47749;SDS011;49810;48.160;10.812;2024-02-15T00:43:02;2.00;;;1.40;;
47749;SDS011;49810;48.160;10.812;2024-02-15T00:44:04;2.53;;;1.60;;
47749;SDS011;49810;48.160;10.812;2024-02-15T00:45:07;3.28;;;1.50;;
47749;SDS011;49810;48.160;10.812;2024-02-15T00:46:11;2.40;;;1.45;;
47749;SDS011;49810;48.160;10.812;2024-02-15T00:47:15;2.83;;;2.28;;
47749;SDS011;49810;48.160;10.812;2024-02-15T00:48:20;2.67;;;2.05;;
47749;SDS011;49810;48.160;10.812;2024-02-15T00:49:23;2.42;;;1.63;;
47749;SDS011;49810;48.160;10.812;2024-02-15T00:50:25;2.35;;;1.65;;
47749;SDS011;49810;48.160;10.812;2024-02-15T00:51:29;3.22;;;1.90;;
47749;SDS011;49810;48.160;10.812;2024-02-15T00:52:31;2.83;;;1.70;;
47749;SDS011;49810;48.160;10.812;2024-02-15T00:53:34;2.50;;;1.50;;
47749;SDS011;49810;48.160;10.812;2024-02-15T00:54:36;3.38;;;1.50;;
47749;SDS011;49810;48.160;10.812;2024-02-15T00:55:39;3.42;;;1.63;;
47749;SDS011;49810;48.160;10.812;2024-02-15T00:56:41;3.10;;;1.58;;
47749;SDS011;49810;48.160;10.812;2024-02-15T00:57:44;2.90;;;1.77;;
47749;SDS011;49810;48.160;10.812;2024-02-15T00:58:46;3.55;;;1.58;;
47749;SDS011;49810;48.160;10.812;2024-02-15T00:59:49;3.55;;;1.40;;
47749;SDS011;49810;48.160;10.812;2024-02-15T01:00:51;2.75;;;1.52;;
47749;SDS011;49810;48.160;10.812;2024-02-15T01:01:54;4.30;;;1.60;;
47749;SDS011;49810;48.160;10.812;2024-02-15T01:02:57;2.92;;;1.80;;
47749;SDS011;49810;48.160;10.812;2024-02-15T01:04:01;3.50;;;1.70;;
47749;SDS011;49810;48.160;10.812;2024-02-15T01:05:03;3.92;;;1.75;;
47749;SDS011;49810;48.160;10.812;2024-02-15T01:06:06;3.05;;;1.63;;
47749;SDS011;49810;48.160;10.812;2024-02-15T01:07:08;3.83;;;1.70;;
47749;SDS011;49810;48.160;10.812;2024-02-15T01:08:12;5.13;;;3.20;;
47749;SDS011;49810;48.160;10.812;2024-02-15T01:09:14;2.05;;;1.20;;
47749;SDS011;49810;48.160;10.812;2024-02-15T01:10:17;2.45;;;1.40;;
47749;SDS011;49810;48.160;10.812;2024-02-15T01:11:19;2.53;;;1.30;;
47749;SDS011;49810;48.160;10.812;2024-02-15T01:12:22;3.80;;;1.40;;
47749;SDS011;49810;48.160;10.812;2024-02-15T01:13:24;2.63;;;1.50;;
47749;SDS011;49810;48.160;10.812;2024-02-15T01:14:27;1.90;;;1.27;;
47749;SDS011;49810;48.160;10.812;2024-02-15T01:15:32;2.40;;;1.50;;
47749;SDS011;49810;48.160;10.812;2024-02-15T01:16:34;3.22;;;1.70;;
47749;SDS011;49810;48.160;10.812;2024-02-15T01:17:37;3.20;;;1.90;;
47749;SDS011;49810;48.160;10.812;2024-02-15T01:18:41;3.55;;;1.75;;
47749;SDS011;49810;48.160;10.812;2024-02-15T01:19:43;3.40;;;1.73;;
47749;SDS011;49810;48.160;10.812;2024-02-15T01:20:47;3.58;;;1.80;;
47749;SDS011;49810;48.160;10.812;2024-02-15T01:21:49;4.90;;;1.92;;
47749;SDS011;49810;48.160;10.812;2024-02-15T01:22:52;2.75;;;1.65;;
47749;SDS011;49810;48.160;10.812;2024-02-15T01:23:54;3.92;;;1.85;;
47749;SDS011;49810;48.160;10.812;2024-02-15T01:24:57;2.97;;;1.70;;
47749;SDS011;49810;48.160;10.812;2024-02-15T01:25:59;3.75;;;1.63;;
47749;SDS011;49810;48.160;10.812;2024-02-15T01:27:03;2.70;;;2.10;;
47749;SDS011;49810;48.160;10.812;2024-02-15T01:28:05;3.17;;;1.75;;
47749;SDS011;49810;48.160;10.812;2024-02-15T01:29:08;3.00;;;1.85;;
47749;SDS011;49810;48.160;10.812;2024-02-15T01:30:13;2.78;;;1.80;;
47749;SDS011;49810;48.160;10.812;2024-02-15T01:31:16;2.90;;;1.95;;
47749;SDS011;49810;48.160;10.812;2024-02-15T01:32:19;3.15;;;2.25;;
47749;SDS011;49810;48.160;10.812;2024-02-15T01:33:21;4.03;;;1.88;;
47749;SDS011;49810;48.160;10.812;2024-02-15T01:34:25;2.28;;;1.50;;
47749;SDS011;49810;48.160;10.812;2024-02-15T01:35:29;2.78;;;1.33;;
47749;SDS011;49810;48.160;10.812;2024-02-15T01:36:31;4.40;;;2.15;;
47749;SDS011;49810;48.160;10.812;2024-02-15T01:37:34;4.80;;;2.50;;
47749;SDS011;49810;48.160;10.812;2024-02-15T01:38:36;4.18;;;3.78;;
47749;SDS011;49810;48.160;10.812;2024-02-15T01:39:39;6.00;;;4.63;;
47749;SDS011;49810;48.160;10.812;2024-02-15T01:40:42;5.13;;;3.15;;
47749;SDS011;49810;48.160;10.812;2024-02-15T01:41:46;4.30;;;1.77;;
47749;SDS011;49810;48.160;10.812;2024-02-15T01:42:50;4.72;;;2.20;;
47749;SDS011;49810;48.160;10.812;2024-02-15T01:43:52;5.57;;;2.33;;
47749;SDS011;49810;48.160;10.812;2024-02-15T01:44:54;4.35;;;1.83;;
47749;SDS011;49810;48.160;10.812;2024-02-15T01:45:57;2.42;;;1.50;;
47749;SDS011;49810;48.160;10.812;2024-02-15T01:47:01;3.85;;;2.17;;
47749;SDS011;49810;48.160;10.812;2024-02-15T01:48:06;3.90;;;1.80;;
47749;SDS011;49810;48.160;10.812;2024-02-15T01:49:08;5.72;;;2.60;;
47749;SDS011;49810;48.160;10.812;2024-02-15T01:50:13;5.78;;;2.90;;
47749;SDS011;49810;48.160;10.812;2024-02-15T01:51:15;9.60;;;3.00;;
47749;SDS011;49810;48.160;10.812;2024-02-15T01:52:18;8.13;;;3.30;;
47749;SDS011;49810;48.160;10.812;2024-02-15T01:53:20;5.78;;;2.63;;
47749;SDS011;49810;48.160;10.812;2024-02-15T01:54:23;6.60;;;2.35;;
47749;SDS011;49810;48.160;10.812;2024-02-15T01:55:26;9.57;;;4.30;;
47749;SDS011;49810;48.160;10.812;2024-02-15T01:56:29;10.95;;;4.53;;
47749;SDS011;49810;48.160;10.812;2024-02-15T01:57:32;8.90;;;4.07;;
47749;SDS011;49810;48.160;10.812;2024-02-15T01:58:35;12.70;;;4.93;;
47749;SDS011;49810;48.160;10.812;2024-02-15T01:59:37;13.73;;;5.53;;
47749;SDS011;49810;48.160;10.812;2024-02-15T02:00:40;18.60;;;7.18;;
47749;SDS011;49810;48.160;10.812;2024-02-15T02:01:42;12.63;;;5.50;;
47749;SDS011;49810;48.160;10.812;2024-02-15T02:02:45;12.85;;;5.15;;
47749;SDS011;49810;48.160;10.812;2024-02-15T02:03:48;9.13;;;4.30;;
47749;SDS011;49810;48.160;10.812;2024-02-15T02:04:51;8.70;;;4.10;;
47749;SDS011;49810;48.160;10.812;2024-02-15T02:05:54;7.40;;;3.40;;
47749;SDS011;49810;48.160;10.812;2024-02-15T02:06:57;3.38;;;2.13;;
47749;SDS011;49810;48.160;10.812;2024-02-15T02:08:01;5.28;;;2.22;;
47749;SDS011;49810;48.160;10.812;2024-02-15T02:09:06;3.42;;;1.98;;
47749;SDS011;49810;48.160;10.812;2024-02-15T02:10:08;2.38;;;1.60;;
47749;SDS011;49810;48.160;10.812;2024-02-15T02:11:12;4.50;;;2.10;;
47749;SDS011;49810;48.160;10.812;2024-02-15T02:12:15;3.28;;;1.83;;
47749;SDS011;49810;48.160;10.812;2024-02-15T02:13:19;3.22;;;1.95;;
47749;SDS011;49810;48.160;10.812;2024-02-15T02:14:21;3.63;;;1.90;;
47749;SDS011;49810;48.160;10.812;2024-02-15T02:15:24;4.10;;;2.05;;
47749;SDS011;49810;48.160;10.812;2024-02-15T02:16:27;4.30;;;2.20;;
47749;SDS011;49810;48.160;10.812;2024-02-15T02:17:30;4.70;;;2.17;;
47749;SDS011;49810;48.160;10.812;2024-02-15T02:18:32;4.18;;;2.15;;
47749;SDS011;49810;48.160;10.812;2024-02-15T02:19:36;5.38;;;2.10;;
47749;SDS011;49810;48.160;10.812;2024-02-15T02:20:40;3.70;;;2.08;;
47749;SDS011;49810;48.160;10.812;2024-02-15T02:21:45;3.40;;;1.55;;
47749;SDS011;49810;48.160;10.812;2024-02-15T02:22:48;3.67;;;1.60;;
47749;SDS011;49810;48.160;10.812;2024-02-15T02:23:55;5.18;;;2.55;;
47749;SDS011;49810;48.160;10.812;2024-02-15T02:25:00;6.22;;;3.10;;
47749;SDS011;49810;48.160;10.812;2024-02-15T02:26:05;5.65;;;3.38;;
47749;SDS011;49810;48.160;10.812;2024-02-15T02:27:07;4.40;;;2.70;;
47749;SDS011;49810;48.160;10.812;2024-02-15T02:28:10;4.22;;;2.40;;
47749;SDS011;49810;48.160;10.812;2024-02-15T02:29:13;4.35;;;2.70;;
47749;SDS011;49810;48.160;10.812;2024-02-15T02:30:17;3.13;;;1.90;;
47749;SDS011;49810;48.160;10.812;2024-02-15T02:31:21;2.50;;;1.55;;
47749;SDS011;49810;48.160;10.812;2024-02-15T02:32:24;3.10;;;2.25;;
47749;SDS011;49810;48.160;10.812;2024-02-15T02:33:26;2.30;;;1.80;;
47749;SDS011;49810;48.160;10.812;2024-02-15T02:34:31;3.35;;;1.65;;
47749;SDS011;49810;48.160;10.812;2024-02-15T02:35:33;2.53;;;1.60;;
47749;SDS011;49810;48.160;10.812;2024-02-15T02:36:36;2.60;;;1.67;;
47749;SDS011;49810;48.160;10.812;2024-02-15T02:37:38;2.45;;;1.52;;
47749;SDS011;49810;48.160;10.812;2024-02-15T02:38:41;2.95;;;1.77;;
47749;SDS011;49810;48.160;10.812;2024-02-15T02:39:47;2.33;;;1.63;;
47749;SDS011;49810;48.160;10.812;2024-02-15T02:40:51;2.33;;;1.30;;
47749;SDS011;49810;48.160;10.812;2024-02-15T02:42:56;4.05;;;1.70;;
47749;SDS011;49810;48.160;10.812;2024-02-15T02:44:01;3.50;;;1.90;;
47749;SDS011;49810;48.160;10.812;2024-02-15T02:45:04;3.67;;;1.50;;
47749;SDS011;49810;48.160;10.812;2024-02-15T02:46:08;2.67;;;1.63;;
47749;SDS011;49810;48.160;10.812;2024-02-15T02:47:12;2.47;;;1.50;;
47749;SDS011;49810;48.160;10.812;2024-02-15T02:48:14;2.30;;;1.33;;
47749;SDS011;49810;48.160;10.812;2024-02-15T02:49:19;2.42;;;1.50;;
47749;SDS011;49810;48.160;10.812;2024-02-15T02:50:21;2.92;;;1.63;;
47749;SDS011;49810;48.160;10.812;2024-02-15T02:51:24;2.88;;;1.70;;
47749;SDS011;49810;48.160;10.812;2024-02-15T02:52:27;2.83;;;1.88;;
47749;SDS011;49810;48.160;10.812;2024-02-15T02:53:29;2.72;;;1.60;;
47749;SDS011;49810;48.160;10.812;2024-02-15T02:54:32;2.80;;;1.60;;
47749;SDS011;49810;48.160;10.812;2024-02-15T02:55:35;3.83;;;1.60;;
47749;SDS011;49810;48.160;10.812;2024-02-15T02:56:39;3.40;;;2.08;;
47749;SDS011;49810;48.160;10.812;2024-02-15T02:57:41;3.88;;;2.30;;
47749;SDS011;49810;48.160;10.812;2024-02-15T02:58:44;4.72;;;2.22;;
47749;SDS011;49810;48.160;10.812;2024-02-15T02:59:46;3.90;;;1.92;;
47749;SDS011;49810;48.160;10.812;2024-02-15T03:00:49;3.28;;;1.70;;
47749;SDS011;49810;48.160;10.812;2024-02-15T03:01:52;4.22;;;2.00;;
47749;SDS011;49810;48.160;10.812;2024-02-15T03:02:58;4.38;;;2.15;;
47749;SDS011;49810;48.160;10.812;2024-02-15T03:04:01;3.20;;;1.77;;
47749;SDS011;49810;48.160;10.812;2024-02-15T03:05:03;3.15;;;1.73;;
47749;SDS011;49810;48.160;10.812;2024-02-15T03:06:07;3.03;;;2.00;;
47749;SDS011;49810;48.160;10.812;2024-02-15T03:07:10;2.90;;;1.88;;
47749;SDS011;49810;48.160;10.812;2024-02-15T03:08:19;4.43;;;1.83;;
47749;SDS011;49810;48.160;10.812;2024-02-15T03:09:21;2.70;;;1.52;;
47749;SDS011;49810;48.160;10.812;2024-02-15T03:10:24;3.47;;;1.77;;
47749;SDS011;49810;48.160;10.812;2024-02-15T03:11:26;2.40;;;1.58;;
47749;SDS011;49810;48.160;10.812;2024-02-15T03:12:30;2.70;;;1.50;;
47749;SDS011;49810;48.160;10.812;2024-02-15T03:13:32;2.40;;;1.70;;
47749;SDS011;49810;48.160;10.812;2024-02-15T03:14:37;3.25;;;1.52;;
47749;SDS011;49810;48.160;10.812;2024-02-15T03:15:39;3.72;;;1.63;;
47749;SDS011;49810;48.160;10.812;2024-02-15T03:16:43;2.80;;;1.83;;
47749;SDS011;49810;48.160;10.812;2024-02-15T03:17:45;2.67;;;1.80;;
47749;SDS011;49810;48.160;10.812;2024-02-15T03:18:49;2.97;;;1.88;;
47749;SDS011;49810;48.160;10.812;2024-02-15T03:19:51;3.67;;;1.80;;
47749;SDS011;49810;48.160;10.812;2024-02-15T03:20:54;3.22;;;1.60;;
47749;SDS011;49810;48.160;10.812;2024-02-15T03:21:56;3.90;;;1.85;;
47749;SDS011;49810;48.160;10.812;2024-02-15T03:22:59;4.60;;;1.90;;
47749;SDS011;49810;48.160;10.812;2024-02-15T03:24:02;3.47;;;1.88;;
47749;SDS011;49810;48.160;10.812;2024-02-15T03:25:05;3.13;;;2.00;;
47749;SDS011;49810;48.160;10.812;2024-02-15T03:26:09;2.35;;;1.40;;
47749;SDS011;49810;48.160;10.812;2024-02-15T03:27:11;3.05;;;1.77;;
47749;SDS011;49810;48.160;10.812;2024-02-15T03:28:15;3.13;;;1.77;;
47749;SDS011;49810;48.160;10.812;2024-02-15T03:29:17;3.35;;;1.90;;
47749;SDS011;49810;48.160;10.812;2024-02-15T03:30:22;3.00;;;1.73;;
47749;SDS011;49810;48.160;10.812;2024-02-15T03:31:25;2.70;;;1.73;;
47749;SDS011;49810;48.160;10.812;2024-02-15T03:32:28;4.25;;;1.85;;
47749;SDS011;49810;48.160;10.812;2024-02-15T03:33:30;2.97;;;1.73;;
47749;SDS011;49810;48.160;10.812;2024-02-15T03:34:37;3.72;;;2.13;;
47749;SDS011;49810;48.160;10.812;2024-02-15T03:35:41;3.78;;;2.10;;
47749;SDS011;49810;48.160;10.812;2024-02-15T03:36:44;4.28;;;2.05;;
47749;SDS011;49810;48.160;10.812;2024-02-15T03:37:47;3.40;;;2.00;;
47749;SDS011;49810;48.160;10.812;2024-02-15T03:38:52;3.38;;;2.10;;
47749;SDS011;49810;48.160;10.812;2024-02-15T03:39:55;3.97;;;2.15;;
47749;SDS011;49810;48.160;10.812;2024-02-15T03:40:58;3.42;;;2.00;;
47749;SDS011;49810;48.160;10.812;2024-02-15T03:42:01;2.88;;;1.60;;
47749;SDS011;49810;48.160;10.812;2024-02-15T03:43:07;2.33;;;1.55;;
47749;SDS011;49810;48.160;10.812;2024-02-15T03:44:11;3.00;;;1.65;;
47749;SDS011;49810;48.160;10.812;2024-02-15T03:45:14;2.15;;;1.48;;
47749;SDS011;49810;48.160;10.812;2024-02-15T03:46:16;2.50;;;1.60;;
47749;SDS011;49810;48.160;10.812;2024-02-15T03:47:19;2.53;;;1.73;;
47749;SDS011;49810;48.160;10.812;2024-02-15T03:48:21;2.90;;;1.88;;
47749;SDS011;49810;48.160;10.812;2024-02-15T03:49:23;3.15;;;1.50;;
47749;SDS011;49810;48.160;10.812;2024-02-15T03:50:26;2.70;;;1.70;;
47749;SDS011;49810;48.160;10.812;2024-02-15T03:51:28;3.42;;;2.00;;
47749;SDS011;49810;48.160;10.812;2024-02-15T03:52:30;3.55;;;2.03;;
47749;SDS011;49810;48.160;10.812;2024-02-15T03:53:33;4.43;;;1.90;;
47749;SDS011;49810;48.160;10.812;2024-02-15T03:54:35;3.53;;;2.20;;
47749;SDS011;49810;48.160;10.812;2024-02-15T03:55:38;3.13;;;2.00;;
47749;SDS011;49810;48.160;10.812;2024-02-15T03:56:46;3.40;;;1.98;;
47749;SDS011;49810;48.160;10.812;2024-02-15T03:57:48;3.15;;;1.88;;
47749;SDS011;49810;48.160;10.812;2024-02-15T03:58:51;3.60;;;2.13;;
47749;SDS011;49810;48.160;10.812;2024-02-15T03:59:54;3.67;;;1.65;;
47749;SDS011;49810;48.160;10.812;2024-02-15T04:00:59;4.53;;;1.85;;
47749;SDS011;49810;48.160;10.812;2024-02-15T04:02:01;3.13;;;1.80;;
47749;SDS011;49810;48.160;10.812;2024-02-15T04:03:04;3.75;;;1.80;;
47749;SDS011;49810;48.160;10.812;2024-02-15T04:04:06;3.63;;;1.83;;
47749;SDS011;49810;48.160;10.812;2024-02-15T04:05:09;3.28;;;1.83;;
47749;SDS011;49810;48.160;10.812;2024-02-15T04:06:14;3.95;;;2.10;;
47749;SDS011;49810;48.160;10.812;2024-02-15T04:07:17;2.20;;;1.52;;
47749;SDS011;49810;48.160;10.812;2024-02-15T04:08:19;4.03;;;2.05;;
47749;SDS011;49810;48.160;10.812;2024-02-15T04:09:22;3.67;;;1.50;;
47749;SDS011;49810;48.160;10.812;2024-02-15T04:10:24;3.00;;;1.77;;
47749;SDS011;49810;48.160;10.812;2024-02-15T04:11:31;3.97;;;1.85;;
47749;SDS011;49810;48.160;10.812;2024-02-15T04:12:35;2.80;;;1.50;;
47749;SDS011;49810;48.160;10.812;2024-02-15T04:13:38;3.90;;;1.95;;
47749;SDS011;49810;48.160;10.812;2024-02-15T04:14:41;3.72;;;1.90;;
47749;SDS011;49810;48.160;10.812;2024-02-15T04:15:44;3.70;;;3.17;;
47749;SDS011;49810;48.160;10.812;2024-02-15T04:16:48;2.75;;;1.63;;
47749;SDS011;49810;48.160;10.812;2024-02-15T04:17:50;3.13;;;1.67;;
47749;SDS011;49810;48.160;10.812;2024-02-15T04:18:58;2.30;;;1.67;;
47749;SDS011;49810;48.160;10.812;2024-02-15T04:20:00;2.35;;;1.40;;
47749;SDS011;49810;48.160;10.812;2024-02-15T04:21:04;2.70;;;1.50;;
47749;SDS011;49810;48.160;10.812;2024-02-15T04:22:09;3.60;;;1.70;;
47749;SDS011;49810;48.160;10.812;2024-02-15T04:23:12;3.28;;;1.70;;
47749;SDS011;49810;48.160;10.812;2024-02-15T04:24:14;2.63;;;1.50;;
47749;SDS011;49810;48.160;10.812;2024-02-15T04:25:16;3.45;;;1.80;;
47749;SDS011;49810;48.160;10.812;2024-02-15T04:26:21;2.70;;;1.40;;
47749;SDS011;49810;48.160;10.812;2024-02-15T04:27:28;2.22;;;1.30;;
47749;SDS011;49810;48.160;10.812;2024-02-15T04:28:30;2.60;;;1.70;;
47749;SDS011;49810;48.160;10.812;2024-02-15T04:29:35;3.03;;;1.60;;
47749;SDS011;49810;48.160;10.812;2024-02-15T04:30:39;2.47;;;1.58;;
47749;SDS011;49810;48.160;10.812;2024-02-15T04:31:43;2.65;;;1.67;;
47749;SDS011;49810;48.160;10.812;2024-02-15T04:32:46;3.13;;;1.60;;
47749;SDS011;49810;48.160;10.812;2024-02-15T04:33:48;2.88;;;1.60;;
47749;SDS011;49810;48.160;10.812;2024-02-15T04:34:51;3.72;;;1.75;;
47749;SDS011;49810;48.160;10.812;2024-02-15T04:35:53;3.53;;;1.55;;
47749;SDS011;49810;48.160;10.812;2024-02-15T04:36:56;2.65;;;1.33;;
47749;SDS011;49810;48.160;10.812;2024-02-15T04:38:00;3.00;;;1.50;;
47749;SDS011;49810;48.160;10.812;2024-02-15T04:39:02;3.72;;;1.77;;
47749;SDS011;49810;48.160;10.812;2024-02-15T04:40:06;2.60;;;1.50;;
47749;SDS011;49810;48.160;10.812;2024-02-15T04:41:12;3.83;;;1.70;;
47749;SDS011;49810;48.160;10.812;2024-02-15T04:42:16;5.20;;;1.60;;
47749;SDS011;49810;48.160;10.812;2024-02-15T04:43:20;3.58;;;1.90;;
47749;SDS011;49810;48.160;10.812;2024-02-15T04:44:26;3.90;;;1.60;;
47749;SDS011;49810;48.160;10.812;2024-02-15T04:45:29;3.72;;;1.52;;
47749;SDS011;49810;48.160;10.812;2024-02-15T04:46:39;3.13;;;1.48;;
47749;SDS011;49810;48.160;10.812;2024-02-15T04:47:44;2.85;;;1.80;;
47749;SDS011;49810;48.160;10.812;2024-02-15T04:48:48;2.17;;;1.30;;
47749;SDS011;49810;48.160;10.812;2024-02-15T04:49:51;3.72;;;1.73;;
47749;SDS011;49810;48.160;10.812;2024-02-15T04:50:53;3.63;;;2.10;;
47749;SDS011;49810;48.160;10.812;2024-02-15T04:51:56;3.13;;;1.80;;
47749;SDS011;49810;48.160;10.812;2024-02-15T04:53:00;3.13;;;1.73;;
47749;SDS011;49810;48.160;10.812;2024-02-15T04:54:03;2.80;;;1.70;;
47749;SDS011;49810;48.160;10.812;2024-02-15T04:55:05;3.42;;;2.20;;
47749;SDS011;49810;48.160;10.812;2024-02-15T04:56:08;3.53;;;1.73;;
47749;SDS011;49810;48.160;10.812;2024-02-15T04:57:15;3.38;;;1.67;;
47749;SDS011;49810;48.160;10.812;2024-02-15T04:58:19;2.72;;;1.80;;
47749;SDS011;49810;48.160;10.812;2024-02-15T04:59:21;9.68;;;5.55;;
47749;SDS011;49810;48.160;10.812;2024-02-15T05:00:27;5.72;;;2.85;;
47749;SDS011;49810;48.160;10.812;2024-02-15T05:01:30;2.70;;;1.50;;
47749;SDS011;49810;48.160;10.812;2024-02-15T05:02:34;2.45;;;1.45;;
47749;SDS011;49810;48.160;10.812;2024-02-15T05:03:43;3.05;;;1.65;;
47749;SDS011;49810;48.160;10.812;2024-02-15T05:04:46;3.28;;;1.58;;
47749;SDS011;49810;48.160;10.812;2024-02-15T05:05:48;2.88;;;1.60;;
47749;SDS011;49810;48.160;10.812;2024-02-15T05:06:51;5.78;;;2.00;;
47749;SDS011;49810;48.160;10.812;2024-02-15T05:07:54;3.58;;;2.08;;
47749;SDS011;49810;48.160;10.812;2024-02-15T05:08:57;2.63;;;1.60;;
47749;SDS011;49810;48.160;10.812;2024-02-15T05:10:01;2.58;;;1.35;;
47749;SDS011;49810;48.160;10.812;2024-02-15T05:11:08;2.60;;;1.40;;
47749;SDS011;49810;48.160;10.812;2024-02-15T05:12:21;2.88;;;1.63;;
47749;SDS011;49810;48.160;10.812;2024-02-15T05:13:24;2.28;;;1.48;;
47749;SDS011;49810;48.160;10.812;2024-02-15T05:14:26;2.53;;;1.63;;
47749;SDS011;49810;48.160;10.812;2024-02-15T05:15:29;2.55;;;1.88;;
47749;SDS011;49810;48.160;10.812;2024-02-15T05:16:31;3.47;;;1.60;;
47749;SDS011;49810;48.160;10.812;2024-02-15T05:17:33;2.53;;;1.98;;
47749;SDS011;49810;48.160;10.812;2024-02-15T05:18:36;5.70;;;1.98;;
47749;SDS011;49810;48.160;10.812;2024-02-15T05:19:40;2.58;;;1.92;;
47749;SDS011;49810;48.160;10.812;2024-02-15T05:20:43;3.03;;;1.92;;
47749;SDS011;49810;48.160;10.812;2024-02-15T05:21:45;3.90;;;2.40;;
47749;SDS011;49810;48.160;10.812;2024-02-15T05:22:48;3.15;;;1.90;;
47749;SDS011;49810;48.160;10.812;2024-02-15T05:23:52;3.63;;;2.15;;
47749;SDS011;49810;48.160;10.812;2024-02-15T05:24:55;3.78;;;1.92;;
47749;SDS011;49810;48.160;10.812;2024-02-15T05:25:56;3.00;;;1.88;;
47749;SDS011;49810;48.160;10.812;2024-02-15T05:26:59;3.08;;;1.80;;
47749;SDS011;49810;48.160;10.812;2024-02-15T05:28:03;5.40;;;2.80;;
47749;SDS011;49810;48.160;10.812;2024-02-15T05:29:07;3.25;;;2.17;;
47749;SDS011;49810;48.160;10.812;2024-02-15T05:30:09;4.97;;;2.00;;
47749;SDS011;49810;48.160;10.812;2024-02-15T05:31:14;3.28;;;2.08;;
47749;SDS011;49810;48.160;10.812;2024-02-15T05:32:18;2.92;;;1.65;;
47749;SDS011;49810;48.160;10.812;2024-02-15T05:33:21;2.67;;;1.73;;
47749;SDS011;49810;48.160;10.812;2024-02-15T05:34:23;2.78;;;1.85;;
47749;SDS011;49810;48.160;10.812;2024-02-15T05:35:30;4.15;;;1.92;;
47749;SDS011;49810;48.160;10.812;2024-02-15T05:36:32;3.88;;;1.75;;
47749;SDS011;49810;48.160;10.812;2024-02-15T05:37:35;3.95;;;2.00;;
47749;SDS011;49810;48.160;10.812;2024-02-15T05:38:38;3.53;;;1.60;;
47749;SDS011;49810;48.160;10.812;2024-02-15T05:39:40;2.88;;;1.65;;
47749;SDS011;49810;48.160;10.812;2024-02-15T05:40:43;2.00;;;1.50;;
47749;SDS011;49810;48.160;10.812;2024-02-15T05:41:45;3.53;;;1.85;;
47749;SDS011;49810;48.160;10.812;2024-02-15T05:42:48;3.83;;;2.05;;
47749;SDS011;49810;48.160;10.812;2024-02-15T05:43:51;2.80;;;1.73;;
47749;SDS011;49810;48.160;10.812;2024-02-15T05:44:54;3.80;;;1.95;;
47749;SDS011;49810;48.160;10.812;2024-02-15T05:45:56;3.88;;;1.60;;
47749;SDS011;49810;48.160;10.812;2024-02-15T05:47:00;3.45;;;1.85;;
47749;SDS011;49810;48.160;10.812;2024-02-15T05:48:03;7.18;;;2.90;;
47749;SDS011;49810;48.160;10.812;2024-02-15T05:49:09;3.80;;;2.22;;
47749;SDS011;49810;48.160;10.812;2024-02-15T05:50:16;6.00;;;3.45;;
47749;SDS011;49810;48.160;10.812;2024-02-15T05:51:23;4.50;;;2.50;;
47749;SDS011;49810;48.160;10.812;2024-02-15T05:52:26;4.38;;;2.45;;
47749;SDS011;49810;48.160;10.812;2024-02-15T05:53:28;4.95;;;2.45;;
47749;SDS011;49810;48.160;10.812;2024-02-15T05:54:30;3.38;;;2.03;;
47749;SDS011;49810;48.160;10.812;2024-02-15T05:55:32;6.22;;;2.83;;
47749;SDS011;49810;48.160;10.812;2024-02-15T05:56:37;6.78;;;2.40;;
47749;SDS011;49810;48.160;10.812;2024-02-15T05:57:39;7.05;;;3.17;;
47749;SDS011;49810;48.160;10.812;2024-02-15T05:58:41;4.47;;;2.55;;
47749;SDS011;49810;48.160;10.812;2024-02-15T05:59:43;4.03;;;2.22;;
47749;SDS011;49810;48.160;10.812;2024-02-15T06:00:45;3.47;;;2.25;;
47749;SDS011;49810;48.160;10.812;2024-02-15T06:01:48;5.40;;;2.80;;
47749;SDS011;49810;48.160;10.812;2024-02-15T06:02:50;5.10;;;3.22;;
47749;SDS011;49810;48.160;10.812;2024-02-15T06:03:54;7.20;;;2.70;;
47749;SDS011;49810;48.160;10.812;2024-02-15T06:04:57;7.15;;;2.65;;
47749;SDS011;49810;48.160;10.812;2024-02-15T06:06:05;4.57;;;2.60;;
47749;SDS011;49810;48.160;10.812;2024-02-15T06:07:10;3.65;;;2.25;;
47749;SDS011;49810;48.160;10.812;2024-02-15T06:08:12;5.10;;;2.10;;
47749;SDS011;49810;48.160;10.812;2024-02-15T06:09:15;5.07;;;2.30;;
47749;SDS011;49810;48.160;10.812;2024-02-15T06:10:17;4.95;;;2.35;;
47749;SDS011;49810;48.160;10.812;2024-02-15T06:11:20;4.82;;;2.33;;
47749;SDS011;49810;48.160;10.812;2024-02-15T06:12:23;4.45;;;2.63;;
47749;SDS011;49810;48.160;10.812;2024-02-15T06:13:26;3.67;;;2.20;;
47749;SDS011;49810;48.160;10.812;2024-02-15T06:14:27;5.95;;;2.17;;
47749;SDS011;49810;48.160;10.812;2024-02-15T06:15:30;3.47;;;2.30;;
47749;SDS011;49810;48.160;10.812;2024-02-15T06:16:32;4.07;;;2.20;;
47749;SDS011;49810;48.160;10.812;2024-02-15T06:17:37;3.85;;;2.28;;